createdAt,value
2018-08-31T00:00:12.145Z,11.70
2018-08-31T00:02:44.857Z,11.40
2018-08-31T00:05:47.390Z,11.53
2018-08-31T00:09:31.398Z,10.90
2018-08-31T00:12:43.225Z,11.68
2018-08-31T00:15:11.998Z,10.90
2018-08-31T00:17:42.411Z,10.98
2018-08-31T00:20:12.291Z,10.63
2018-08-31T00:22:41.036Z,10.60
2018-08-31T00:26:24.764Z,10.60
2018-08-31T00:29:05.592Z,11.55
2018-08-31T00:33:55.331Z,13.28
2018-08-31T00:36:38.464Z,24.75
2018-08-31T00:41:19.261Z,39.88
2018-08-31T00:43:58.465Z,32.90
2018-08-31T00:46:27.484Z,22.73
2018-08-31T00:48:56.924Z,15.00
2018-08-31T00:51:25.660Z,12.95
2018-08-31T00:53:55.445Z,18.25
2018-08-31T00:56:25.050Z,37.05
2018-08-31T00:58:54.715Z,21.35
2018-08-31T01:01:23.800Z,13.72
2018-08-31T01:03:53.320Z,10.70
2018-08-31T01:06:23.029Z,10.72
2018-08-31T01:08:52.621Z,10.50
2018-08-31T01:11:21.236Z,10.78
2018-08-31T01:13:50.584Z,10.35
2018-08-31T01:16:19.285Z,11.28
2018-08-31T01:18:48.456Z,10.80
2018-08-31T01:21:17.354Z,11.43
2018-08-31T01:23:47.672Z,11.15
2018-08-31T01:26:17.025Z,11.22
2018-08-31T01:28:46.684Z,10.40
2018-08-31T01:31:16.199Z,9.95
2018-08-31T01:33:45.129Z,10.50
2018-08-31T01:36:14.575Z,11.20
2018-08-31T01:38:43.492Z,10.40
2018-08-31T01:41:12.786Z,10.95
2018-08-31T01:43:42.176Z,11.03
2018-08-31T01:46:11.194Z,11.40
2018-08-31T01:48:40.721Z,10.75
2018-08-31T01:51:15.158Z,11.00
2018-08-31T01:53:44.155Z,10.95
2018-08-31T01:56:12.976Z,11.40
2018-08-31T01:58:42.693Z,11.48
2018-08-31T02:01:12.277Z,11.85
2018-08-31T02:03:41.281Z,11.48
2018-08-31T02:06:10.681Z,11.75
2018-08-31T02:08:45.017Z,11.95
2018-08-31T02:11:14.877Z,11.90
2018-08-31T02:13:44.656Z,11.20
2018-08-31T02:16:13.530Z,11.25
2018-08-31T02:18:42.901Z,11.60
2018-08-31T02:21:12.305Z,10.88
2018-08-31T02:23:41.440Z,11.73
2018-08-31T02:26:11.125Z,10.55
2018-08-31T02:28:41.000Z,11.08
2018-08-31T02:31:09.616Z,11.78
2018-08-31T02:33:39.282Z,11.90
2018-08-31T02:36:08.820Z,13.00
2018-08-31T02:38:38.491Z,12.47
2018-08-31T02:41:07.232Z,11.60
2018-08-31T02:43:36.928Z,11.60
2018-08-31T02:46:06.332Z,11.33
2018-08-31T02:48:35.441Z,12.18
2018-08-31T02:51:04.184Z,11.83
2018-08-31T02:53:33.471Z,11.50
2018-08-31T02:56:03.118Z,12.13
2018-08-31T02:58:32.680Z,12.23
2018-08-31T03:01:01.861Z,12.25
2018-08-31T03:03:31.131Z,12.20
2018-08-31T03:06:01.034Z,11.68
2018-08-31T03:08:30.485Z,11.75
2018-08-31T03:10:59.759Z,11.88
2018-08-31T03:13:29.600Z,11.80
2018-08-31T03:15:58.297Z,11.70
2018-08-31T03:18:27.650Z,11.25
2018-08-31T03:20:57.581Z,12.07
2018-08-31T03:23:26.781Z,11.60
2018-08-31T03:25:56.510Z,11.38
2018-08-31T03:28:25.256Z,11.45
2018-08-31T03:30:54.699Z,10.95
2018-08-31T03:33:23.754Z,10.93
2018-08-31T03:35:53.476Z,10.38
2018-08-31T03:38:23.100Z,10.32
2018-08-31T03:40:52.821Z,10.80
2018-08-31T03:43:22.316Z,10.88
2018-08-31T03:45:51.033Z,10.23
2018-08-31T03:48:20.885Z,10.82
2018-08-31T03:50:50.334Z,10.23
2018-08-31T03:53:19.212Z,9.95
2018-08-31T03:55:49.281Z,10.58
2018-08-31T03:58:19.009Z,9.88
2018-08-31T04:00:48.541Z,11.18
2018-08-31T04:03:17.691Z,10.70
2018-08-31T04:05:47.500Z,11.45
2018-08-31T04:08:16.948Z,11.80
2018-08-31T04:10:46.031Z,10.78
2018-08-31T04:13:14.661Z,11.43
2018-08-31T04:15:44.269Z,11.43
2018-08-31T04:18:13.095Z,10.65
2018-08-31T04:20:42.333Z,11.63
2018-08-31T04:23:11.272Z,11.43
2018-08-31T04:25:41.186Z,11.45
2018-08-31T04:28:10.531Z,11.50
2018-08-31T04:30:39.233Z,10.35
2018-08-31T04:33:08.500Z,10.85
2018-08-31T04:35:37.204Z,11.53
2018-08-31T04:38:06.801Z,11.10
2018-08-31T04:40:36.626Z,9.93
2018-08-31T04:43:05.266Z,10.28
2018-08-31T04:45:34.705Z,10.72
2018-08-31T04:48:03.461Z,10.82
2018-08-31T04:50:33.344Z,10.48
2018-08-31T04:53:02.405Z,10.28
2018-08-31T04:55:31.471Z,9.63
2018-08-31T04:58:01.005Z,9.53
2018-08-31T05:00:30.391Z,9.38
2018-08-31T05:02:59.158Z,10.28
2018-08-31T05:05:28.481Z,10.38
2018-08-31T05:07:57.241Z,9.90
2018-08-31T05:10:26.899Z,10.50
2018-08-31T05:12:56.743Z,10.63
2018-08-31T05:15:25.960Z,10.60
2018-08-31T05:17:54.739Z,10.20
2018-08-31T05:20:24.440Z,9.73
2018-08-31T05:22:53.918Z,11.03
2018-08-31T05:25:23.744Z,10.30
2018-08-31T05:27:53.080Z,10.15
2018-08-31T05:30:22.180Z,9.45
2018-08-31T05:32:51.749Z,9.60
2018-08-31T05:35:21.575Z,10.48
2018-08-31T05:37:51.015Z,10.70
2018-08-31T05:40:20.874Z,10.23
2018-08-31T05:42:50.296Z,10.38
2018-08-31T05:45:19.064Z,11.08
2018-08-31T05:47:47.881Z,10.30
2018-08-31T05:50:17.928Z,9.88
2018-08-31T05:52:47.348Z,10.08
2018-08-31T05:55:17.638Z,11.22
2018-08-31T05:57:47.308Z,11.08
2018-08-31T06:00:17.295Z,9.58
2018-08-31T06:02:46.701Z,9.40
2018-08-31T06:05:15.324Z,9.50
2018-08-31T06:07:44.788Z,9.03
2018-08-31T06:10:13.596Z,7.95
2018-08-31T06:12:42.736Z,8.85
2018-08-31T06:15:11.520Z,8.05
2018-08-31T06:17:41.460Z,8.38
2018-08-31T06:20:10.919Z,7.80
2018-08-31T06:22:40.240Z,7.47
2018-08-31T06:25:09.596Z,7.83
2018-08-31T06:27:39.401Z,7.62
2018-08-31T06:30:09.256Z,8.10
2018-08-31T06:32:38.848Z,7.60
2018-08-31T06:35:08.748Z,7.80
2018-08-31T06:37:38.149Z,8.00
2018-08-31T06:40:07.108Z,6.87
2018-08-31T06:42:36.651Z,7.05
2018-08-31T06:45:05.413Z,7.70
2018-08-31T06:47:34.718Z,6.90
2018-08-31T06:50:04.488Z,6.22
2018-08-31T06:52:33.242Z,6.47
2018-08-31T06:55:02.538Z,6.15
2018-08-31T06:57:31.435Z,5.70
2018-08-31T07:00:01.249Z,6.00
2018-08-31T07:02:30.573Z,6.25
2018-08-31T07:04:59.426Z,6.00
2018-08-31T07:07:29.240Z,5.80
2018-08-31T07:09:58.641Z,6.05
2018-08-31T07:12:27.456Z,6.05
2018-08-31T07:14:56.879Z,6.05
2018-08-31T07:17:26.318Z,6.45
2018-08-31T07:19:55.131Z,6.37
2018-08-31T07:22:24.690Z,6.40
2018-08-31T07:24:53.752Z,7.12
2018-08-31T07:27:23.164Z,6.72
2018-08-31T07:29:52.842Z,6.67
2018-08-31T07:32:22.323Z,6.55
2018-08-31T07:34:51.393Z,6.55
2018-08-31T07:37:21.888Z,7.10
2018-08-31T07:39:51.770Z,6.08
2018-08-31T07:42:21.492Z,6.58
2018-08-31T07:44:50.482Z,6.62
2018-08-31T07:47:19.685Z,6.30
2018-08-31T07:49:49.012Z,7.10
2018-08-31T07:52:18.650Z,6.85
2018-08-31T07:54:47.448Z,7.75
2018-08-31T07:57:17.276Z,7.67
2018-08-31T07:59:47.080Z,6.83
2018-08-31T08:02:17.106Z,6.70
2018-08-31T08:04:46.681Z,6.25
2018-08-31T08:07:15.758Z,5.90
2018-08-31T08:09:45.627Z,5.90
2018-08-31T08:12:15.376Z,5.92
2018-08-31T08:14:44.867Z,6.05
2018-08-31T08:17:14.188Z,6.20
2018-08-31T08:19:43.052Z,6.78
2018-08-31T08:22:12.521Z,6.17
2018-08-31T08:24:41.425Z,6.08
2018-08-31T08:27:10.206Z,6.65
2018-08-31T08:29:39.049Z,6.47
2018-08-31T08:32:08.666Z,6.05
2018-08-31T08:34:37.690Z,5.92
2018-08-31T08:37:07.925Z,6.10
2018-08-31T08:39:38.123Z,5.33
2018-08-31T08:42:07.099Z,5.25
2018-08-31T08:44:35.907Z,5.03
2018-08-31T08:47:05.382Z,5.78
2018-08-31T08:49:34.788Z,5.60
2018-08-31T08:52:03.823Z,4.95
2018-08-31T08:54:33.723Z,5.12
2018-08-31T08:57:03.093Z,4.92
2018-08-31T08:59:33.069Z,4.30
2018-08-31T09:02:02.778Z,4.80
2018-08-31T09:04:31.497Z,4.97
2018-08-31T09:07:00.772Z,5.35
2018-08-31T09:09:29.540Z,4.40
2018-08-31T09:11:58.976Z,4.97
2018-08-31T09:14:28.461Z,5.60
2018-08-31T09:16:57.222Z,4.53
2018-08-31T09:19:26.616Z,5.50
2018-08-31T09:21:55.657Z,4.65
2018-08-31T09:24:25.440Z,4.90
2018-08-31T09:26:54.907Z,4.72
2018-08-31T09:29:24.646Z,4.83
2018-08-31T09:31:53.653Z,4.62
2018-08-31T09:34:23.239Z,4.17
2018-08-31T09:36:52.894Z,4.45
2018-08-31T09:39:22.373Z,4.15
2018-08-31T09:41:51.771Z,4.65
2018-08-31T09:44:21.505Z,4.58
2018-08-31T09:46:51.393Z,3.98
2018-08-31T09:49:21.349Z,3.37
2018-08-31T09:51:50.875Z,3.12
2018-08-31T09:54:20.290Z,3.77
2018-08-31T09:56:49.422Z,4.00
2018-08-31T09:59:18.767Z,3.15
2018-08-31T10:01:47.619Z,3.40
2018-08-31T10:04:16.844Z,3.50
2018-08-31T10:06:46.223Z,3.50
2018-08-31T10:09:15.201Z,3.25
2018-08-31T10:11:44.918Z,2.95
2018-08-31T10:14:14.470Z,3.27
2018-08-31T10:16:43.743Z,2.67
2018-08-31T10:19:14.044Z,2.80
2018-08-31T10:21:43.110Z,3.25
2018-08-31T10:24:13.247Z,3.10
2018-08-31T10:26:42.713Z,2.92
2018-08-31T10:29:11.529Z,3.10
2018-08-31T10:31:41.027Z,2.90
2018-08-31T10:34:10.613Z,3.05
2018-08-31T10:36:39.413Z,2.70
2018-08-31T10:39:13.261Z,3.30
2018-08-31T10:41:42.454Z,2.72
2018-08-31T10:44:11.451Z,2.80
2018-08-31T10:46:40.888Z,2.98
2018-08-31T10:49:10.460Z,3.00
2018-08-31T10:51:39.420Z,3.27
2018-08-31T10:54:09.090Z,2.70
2018-08-31T10:56:38.715Z,2.77
2018-08-31T10:59:07.472Z,2.83
2018-08-31T11:01:37.061Z,2.77
2018-08-31T11:04:06.682Z,2.42
2018-08-31T11:06:35.400Z,3.08
2018-08-31T11:09:05.947Z,2.47
2018-08-31T11:11:35.393Z,2.47
2018-08-31T11:14:05.560Z,2.72
2018-08-31T11:16:35.357Z,3.00
2018-08-31T11:19:04.964Z,3.25
2018-08-31T11:21:34.496Z,2.92
2018-08-31T11:24:03.285Z,2.98
2018-08-31T11:26:32.740Z,2.58
2018-08-31T11:29:01.608Z,2.20
2018-08-31T11:31:31.665Z,2.55
2018-08-31T11:34:01.025Z,2.30
2018-08-31T11:36:30.533Z,2.33
2018-08-31T11:38:59.373Z,2.80
2018-08-31T11:41:28.925Z,2.58
2018-08-31T11:43:58.688Z,1.77
2018-08-31T11:46:27.596Z,2.10
2018-08-31T11:48:56.925Z,2.42
2018-08-31T11:51:26.681Z,2.08
2018-08-31T11:53:55.930Z,2.25
2018-08-31T11:56:25.025Z,2.40
2018-08-31T11:58:54.731Z,2.62
2018-08-31T12:01:23.474Z,2.70
2018-08-31T12:03:52.805Z,2.47
2018-08-31T12:06:21.676Z,2.58
2018-08-31T12:08:51.538Z,2.22
2018-08-31T12:11:20.975Z,2.25
2018-08-31T12:13:50.831Z,2.45
2018-08-31T12:16:20.170Z,2.37
2018-08-31T12:18:49.198Z,2.60
2018-08-31T12:21:18.896Z,2.50
2018-08-31T12:23:47.792Z,2.67
2018-08-31T12:26:17.279Z,2.62
2018-08-31T12:28:47.021Z,2.37
2018-08-31T12:31:16.400Z,2.27
2018-08-31T12:33:45.504Z,2.80
2018-08-31T12:36:15.235Z,2.50
2018-08-31T12:38:45.661Z,2.20
2018-08-31T12:41:15.281Z,2.55
2018-08-31T12:43:45.590Z,2.45
2018-08-31T12:46:15.003Z,2.40
2018-08-31T12:48:44.496Z,2.72
2018-08-31T12:51:13.220Z,2.22
2018-08-31T12:53:42.643Z,2.30
2018-08-31T12:56:11.393Z,2.30
2018-08-31T12:58:41.257Z,4.03
2018-08-31T13:01:10.880Z,1.70
2018-08-31T13:03:40.765Z,2.08
2018-08-31T13:06:09.453Z,1.90
2018-08-31T13:08:39.341Z,2.47
2018-08-31T13:11:09.164Z,1.80
2018-08-31T13:13:38.436Z,1.60
2018-08-31T13:16:07.275Z,2.15
2018-08-31T13:18:37.566Z,1.80
2018-08-31T13:21:07.278Z,1.82
2018-08-31T13:23:37.407Z,2.10
2018-08-31T13:26:07.237Z,1.92
2018-08-31T13:28:36.805Z,2.17
2018-08-31T13:31:05.841Z,1.95
2018-08-31T13:33:35.660Z,1.77
2018-08-31T13:36:04.963Z,1.90
2018-08-31T13:38:34.820Z,2.10
2018-08-31T13:41:03.490Z,2.30
2018-08-31T13:43:33.215Z,2.33
2018-08-31T13:46:03.017Z,2.10
2018-08-31T13:48:32.621Z,2.50
2018-08-31T13:51:01.683Z,2.00
2018-08-31T13:53:31.230Z,1.90
2018-08-31T13:56:00.512Z,2.55
2018-08-31T13:58:29.270Z,1.72
2018-08-31T14:00:58.930Z,5.55
2018-08-31T14:03:27.647Z,2.17
2018-08-31T14:05:57.091Z,2.20
2018-08-31T14:08:26.885Z,2.00
2018-08-31T14:10:56.301Z,1.98
2018-08-31T14:13:25.324Z,1.98
2018-08-31T14:15:55.925Z,2.12
2018-08-31T14:18:25.436Z,2.12
2018-08-31T14:20:55.390Z,2.20
2018-08-31T14:23:25.267Z,2.42
2018-08-31T14:25:54.849Z,2.10
2018-08-31T14:28:24.020Z,1.90
2018-08-31T14:30:53.330Z,2.10
2018-08-31T14:33:23.053Z,2.00
2018-08-31T14:35:53.030Z,1.85
2018-08-31T14:38:22.284Z,2.15
2018-08-31T14:40:51.118Z,1.80
2018-08-31T14:43:20.736Z,2.00
2018-08-31T14:45:49.637Z,2.20
2018-08-31T14:48:19.625Z,2.25
2018-08-31T14:50:49.296Z,2.47
2018-08-31T14:53:18.577Z,1.90
2018-08-31T14:55:47.471Z,2.85
2018-08-31T14:58:16.547Z,2.60
2018-08-31T15:00:45.339Z,2.50
2018-08-31T15:03:14.855Z,2.30
2018-08-31T15:05:43.887Z,2.22
2018-08-31T15:08:13.166Z,2.47
2018-08-31T15:10:42.690Z,2.40
2018-08-31T15:13:11.762Z,2.35
2018-08-31T15:15:40.892Z,2.47
2018-08-31T15:18:09.765Z,2.30
2018-08-31T15:20:39.406Z,2.52
2018-08-31T15:23:09.210Z,2.30
2018-08-31T15:25:38.624Z,3.00
2018-08-31T15:28:07.412Z,2.65
2018-08-31T15:30:36.765Z,2.65
2018-08-31T15:33:05.476Z,2.30
2018-08-31T15:35:35.126Z,2.35
2018-08-31T15:38:03.861Z,2.50
2018-08-31T15:40:32.800Z,2.30
2018-08-31T15:43:01.589Z,2.20
2018-08-31T15:45:31.596Z,2.47
2018-08-31T15:48:00.795Z,1.87
2018-08-31T15:50:29.662Z,2.30
2018-08-31T15:52:59.092Z,2.42
2018-08-31T15:55:28.686Z,2.52
2018-08-31T15:57:57.816Z,2.87
2018-08-31T16:00:27.504Z,2.47
2018-08-31T16:02:57.073Z,2.35
2018-08-31T16:05:26.801Z,2.47
2018-08-31T16:07:55.705Z,2.55
2018-08-31T16:10:25.236Z,2.42
2018-08-31T16:12:54.688Z,2.75
2018-08-31T16:15:23.646Z,2.80
2018-08-31T16:17:52.949Z,2.90
2018-08-31T16:20:21.696Z,5.17
2018-08-31T16:22:51.505Z,11.33
2018-08-31T16:25:21.226Z,3.08
2018-08-31T16:27:51.202Z,4.55
2018-08-31T16:30:20.779Z,6.65
2018-08-31T16:32:49.637Z,12.80
2018-08-31T16:35:19.164Z,9.30
2018-08-31T16:37:48.465Z,15.63
2018-08-31T16:40:17.487Z,13.22
2018-08-31T16:42:47.467Z,13.60
2018-08-31T16:45:16.789Z,12.95
2018-08-31T16:47:45.837Z,16.45
2018-08-31T16:50:15.644Z,29.67
2018-08-31T16:52:46.078Z,14.63
2018-08-31T16:55:15.421Z,65.20
2018-08-31T16:57:45.060Z,6.72
2018-08-31T17:00:14.756Z,3.50
2018-08-31T17:02:43.684Z,3.10
2018-08-31T17:05:12.941Z,2.90
2018-08-31T17:07:42.727Z,3.50
2018-08-31T17:10:11.526Z,3.15
2018-08-31T17:12:40.873Z,4.42
2018-08-31T17:15:11.165Z,4.08
2018-08-31T17:17:40.555Z,4.00
2018-08-31T17:20:09.717Z,4.67
2018-08-31T17:22:39.457Z,7.28
2018-08-31T17:25:09.713Z,10.20
2018-08-31T17:27:44.161Z,6.45
2018-08-31T17:30:19.163Z,4.80
2018-08-31T17:32:54.466Z,4.78
2018-08-31T17:35:38.366Z,4.67
2018-08-31T17:38:07.280Z,10.68
2018-08-31T17:40:36.861Z,10.38
2018-08-31T17:43:06.160Z,6.80
2018-08-31T17:45:36.016Z,20.85
2018-08-31T17:48:05.520Z,27.82
2018-08-31T17:50:35.231Z,14.28
2018-08-31T17:53:04.090Z,8.33
2018-08-31T17:55:33.511Z,4.10
2018-08-31T17:58:03.250Z,4.75
2018-08-31T18:00:32.796Z,11.55
2018-08-31T18:03:01.664Z,12.60
2018-08-31T18:05:31.230Z,8.98
2018-08-31T18:08:00.695Z,6.85
2018-08-31T18:10:29.663Z,4.97
2018-08-31T18:12:59.246Z,3.67
2018-08-31T18:15:29.304Z,3.80
2018-08-31T18:17:59.447Z,3.72
2018-08-31T18:20:29.530Z,3.55
2018-08-31T18:22:58.870Z,4.20
2018-08-31T18:25:27.526Z,4.17
2018-08-31T18:27:56.814Z,3.70
2018-08-31T18:30:25.825Z,4.25
2018-08-31T18:32:55.775Z,3.90
2018-08-31T18:35:24.995Z,4.25
2018-08-31T18:37:53.660Z,3.75
2018-08-31T18:40:23.244Z,4.17
2018-08-31T18:42:54.102Z,4.58
2018-08-31T18:45:23.705Z,3.87
2018-08-31T18:47:53.292Z,4.58
2018-08-31T18:50:22.622Z,3.70
2018-08-31T18:52:51.363Z,3.77
2018-08-31T18:55:21.275Z,3.67
2018-08-31T18:57:50.814Z,3.65
2018-08-31T19:00:19.705Z,3.85
2018-08-31T19:02:49.383Z,3.42
2018-08-31T19:05:18.661Z,3.77
2018-08-31T19:07:47.777Z,3.77
2018-08-31T19:10:17.708Z,3.85
2018-08-31T19:12:47.489Z,3.47
2018-08-31T19:15:17.111Z,4.40
2018-08-31T19:17:46.433Z,4.35
2018-08-31T19:20:15.304Z,4.22
2018-08-31T19:22:45.095Z,3.92
2018-08-31T19:25:14.744Z,4.35
2018-08-31T19:27:43.711Z,4.40
2018-08-31T19:30:12.953Z,4.70
2018-08-31T19:32:41.729Z,4.65
2018-08-31T19:35:11.514Z,4.53
2018-08-31T19:37:41.101Z,4.50
2018-08-31T19:40:10.460Z,4.90
2018-08-31T19:42:39.322Z,5.03
2018-08-31T19:45:09.120Z,4.37
2018-08-31T19:47:39.297Z,4.60
2018-08-31T19:50:08.960Z,5.50
2018-08-31T19:52:37.976Z,4.87
2018-08-31T19:55:07.571Z,4.58
2018-08-31T19:57:37.229Z,4.35
2018-08-31T20:00:07.318Z,4.72
2018-08-31T20:02:37.141Z,4.67
2018-08-31T20:05:06.566Z,5.58
2018-08-31T20:07:35.571Z,5.58
2018-08-31T20:10:05.141Z,5.17
2018-08-31T20:12:34.625Z,4.67
2018-08-31T20:15:03.524Z,5.40
2018-08-31T20:17:33.138Z,5.10
2018-08-31T20:20:02.924Z,6.15
2018-08-31T20:22:31.877Z,5.65
2018-08-31T20:25:01.054Z,6.12
2018-08-31T20:27:30.672Z,6.60
2018-08-31T20:29:59.444Z,5.65
2018-08-31T20:32:28.849Z,6.17
2018-08-31T20:34:57.516Z,5.92
2018-08-31T20:37:27.063Z,5.92
2018-08-31T20:39:56.934Z,6.00
2018-08-31T20:42:25.846Z,6.60
2018-08-31T20:44:55.401Z,7.20
2018-08-31T20:47:25.228Z,6.20
2018-08-31T20:49:54.651Z,6.25
2018-08-31T20:52:23.478Z,6.35
2018-08-31T20:54:53.143Z,6.80
2018-08-31T20:57:22.620Z,5.67
2018-08-31T20:59:51.642Z,5.42
2018-08-31T21:02:21.183Z,6.47
2018-08-31T21:04:50.696Z,5.67
2018-08-31T21:07:19.436Z,5.97
2018-08-31T21:09:48.619Z,6.33
2018-08-31T21:12:17.463Z,5.78
2018-08-31T21:14:46.999Z,6.47
2018-08-31T21:17:16.861Z,5.55
2018-08-31T21:19:45.666Z,5.92
2018-08-31T21:22:15.021Z,5.90
2018-08-31T21:24:44.232Z,5.85
2018-08-31T21:27:12.936Z,5.65
2018-08-31T21:29:42.386Z,5.67
2018-08-31T21:32:11.494Z,6.10
2018-08-31T21:34:40.777Z,6.03
2018-08-31T21:37:09.581Z,5.78
2018-08-31T21:39:39.345Z,5.90
2018-08-31T21:42:09.101Z,5.97
2018-08-31T21:44:38.261Z,6.20
2018-08-31T21:47:07.250Z,6.33
2018-08-31T21:49:36.940Z,6.12
2018-08-31T21:52:06.821Z,5.80
2018-08-31T21:54:35.841Z,6.05
2018-08-31T21:57:05.651Z,5.65
2018-08-31T21:59:35.013Z,6.03
2018-08-31T22:02:04.866Z,6.28
2018-08-31T22:04:33.680Z,5.55
2018-08-31T22:07:03.021Z,5.85
2018-08-31T22:09:32.707Z,5.72
2018-08-31T22:12:01.456Z,5.40
2018-08-31T22:14:30.746Z,5.37
2018-08-31T22:16:59.772Z,5.15
2018-08-31T22:19:29.572Z,5.65
2018-08-31T22:21:59.004Z,5.03
2018-08-31T22:24:28.730Z,5.05
2018-08-31T22:26:57.466Z,5.30
2018-08-31T22:29:27.324Z,5.00
2018-08-31T22:31:55.977Z,4.78
2018-08-31T22:34:25.665Z,5.58
2018-08-31T22:36:55.022Z,5.22
2018-08-31T22:39:24.889Z,5.08
2018-08-31T22:41:53.655Z,5.00
2018-08-31T22:44:23.053Z,4.70
2018-08-31T22:46:52.566Z,5.00
2018-08-31T22:49:21.321Z,4.70
2018-08-31T22:51:50.821Z,4.58
2018-08-31T22:54:19.565Z,5.08
2018-08-31T22:56:49.365Z,4.72
2018-08-31T22:59:18.589Z,4.15
2018-08-31T23:01:47.779Z,4.33
2018-08-31T23:04:17.307Z,4.75
2018-08-31T23:06:46.593Z,4.90
2018-08-31T23:09:15.340Z,4.50
2018-08-31T23:11:44.085Z,4.75
2018-08-31T23:14:13.850Z,4.78
2018-08-31T23:16:43.136Z,5.20
2018-08-31T23:19:12.600Z,5.47
2018-08-31T23:21:41.284Z,5.17
2018-08-31T23:24:10.925Z,5.45
2018-08-31T23:26:39.730Z,4.97
2018-08-31T23:29:09.101Z,5.53
2018-08-31T23:31:38.576Z,5.55
2018-08-31T23:34:07.321Z,5.58
2018-08-31T23:36:36.872Z,5.35
2018-08-31T23:39:07.042Z,5.12
2018-08-31T23:41:36.168Z,5.20
2018-08-31T23:44:05.905Z,4.67
2018-08-31T23:46:35.684Z,4.80
2018-08-31T23:49:05.304Z,5.37
2018-08-31T23:51:34.065Z,5.05
2018-08-31T23:54:03.693Z,5.40
2018-08-31T23:56:33.365Z,5.20
2018-08-31T23:59:02.729Z,5.28
